Time;durP1;ratioP1;P1;durP2;ratioP2;P2;SDS_P1;SDS_P2;PMS_P1;PMS_P2;Temp;Humidity;BMP_temperature;BMP_pressure;BME280_temperature;BME280_humidity;BME280_pressure;Samples;Min_cycle;Max_cycle;Signal;HPM_P1;HPM_P2
2022/10/21 00:00:28;;;;;;;16.80;12.48;;;11.10;99.90;;;;;;2082080;28;20057;-74
2022/10/21 00:01:29;;;;;;;14.77;11.60;;;11.10;99.90;;;;;;2082151;28;20427;-74
2022/10/21 00:02:30;;;;;;;15.82;11.68;;;11.10;99.90;;;;;;2082224;28;20021;-74
2022/10/21 00:03:30;;;;;;;17.08;11.40;;;11.10;99.90;;;;;;2082321;28;20021;-74
2022/10/21 00:04:32;;;;;;;16.23;12.60;;;11.10;99.90;;;;;;2071770;28;20018;-74
2022/10/21 00:05:32;;;;;;;17.83;12.43;;;11.10;99.90;;;;;;2072491;28;20045;-75
2022/10/21 00:06:33;;;;;;;17.70;13.30;;;11.10;99.90;;;;;;2080370;28;20034;-74
2022/10/21 00:07:34;;;;;;;19.58;12.98;;;11.10;99.90;;;;;;2072468;28;20018;-75
2022/10/21 00:08:35;;;;;;;14.90;12.05;;;11.00;99.90;;;;;;2089518;28;20037;-75
2022/10/21 00:09:36;;;;;;;17.30;12.88;;;11.00;99.90;;;;;;2083814;28;20092;-74
2022/10/21 00:10:37;;;;;;;17.95;12.75;;;11.00;99.90;;;;;;2074976;28;20022;-75
2022/10/21 00:11:37;;;;;;;17.77;12.93;;;11.00;99.90;;;;;;2083701;28;20178;-74
2022/10/21 00:12:38;;;;;;;17.70;12.10;;;11.00;99.90;;;;;;2082412;28;20507;-76
2022/10/21 00:13:39;;;;;;;17.00;13.15;;;11.00;99.90;;;;;;2080537;28;20029;-74
2022/10/21 00:14:39;;;;;;;16.88;12.63;;;10.90;99.90;;;;;;2079887;28;20087;-76
2022/10/21 00:15:40;;;;;;;16.20;12.50;;;10.90;99.90;;;;;;2080252;28;20044;-75
2022/10/21 00:16:41;;;;;;;17.15;12.98;;;10.90;99.90;;;;;;2080290;28;20033;-74
2022/10/21 00:17:42;;;;;;;18.85;12.98;;;10.90;99.90;;;;;;2080251;28;20072;-75
2022/10/21 00:18:44;;;;;;;17.13;12.80;;;10.90;99.90;;;;;;2072110;28;20121;-74
2022/10/21 00:19:45;;;;;;;17.95;12.82;;;10.90;99.90;;;;;;2080490;28;20033;-75
2022/10/21 00:20:45;;;;;;;16.67;12.70;;;10.90;99.90;;;;;;2079979;28;20099;-74
2022/10/21 00:21:46;;;;;;;15.20;12.20;;;10.90;99.90;;;;;;2080327;28;20034;-75
2022/10/21 00:22:47;;;;;;;18.27;12.95;;;10.90;99.90;;;;;;2080750;28;20029;-75
2022/10/21 00:23:48;;;;;;;17.92;12.57;;;10.90;99.90;;;;;;2080688;28;20021;-75
2022/10/21 00:24:49;;;;;;;19.80;13.57;;;10.90;99.90;;;;;;2080365;28;20033;-74
2022/10/21 00:25:54;;;;;;;19.30;13.98;;;10.90;99.90;;;;;;2079488;28;20025;-75
2022/10/21 00:26:55;;;;;;;17.17;12.98;;;10.90;99.90;;;;;;2079931;28;20031;-74
2022/10/21 00:27:56;;;;;;;18.13;13.15;;;10.80;99.90;;;;;;2080065;28;20029;-75
2022/10/21 00:28:57;;;;;;;18.83;13.38;;;10.80;99.90;;;;;;2080083;28;20143;-74
2022/10/21 00:29:58;;;;;;;18.83;13.15;;;10.90;99.90;;;;;;2080172;28;20025;-75
2022/10/21 00:30:58;;;;;;;17.08;12.25;;;10.90;99.90;;;;;;2080606;28;20505;-74
2022/10/21 00:31:59;;;;;;;17.85;13.90;;;10.90;99.90;;;;;;2080510;28;20025;-76
2022/10/21 00:33:00;;;;;;;17.75;12.43;;;10.80;99.90;;;;;;2079637;28;20017;-75
2022/10/21 00:34:01;;;;;;;17.25;12.75;;;10.80;99.90;;;;;;2079539;28;20013;-74
2022/10/21 00:35:02;;;;;;;17.25;12.82;;;10.90;99.90;;;;;;2079409;28;20510;-75
2022/10/21 00:36:04;;;;;;;21.65;13.57;;;10.90;99.90;;;;;;2071695;28;20554;-75
2022/10/21 00:37:05;;;;;;;18.83;13.40;;;10.90;99.90;;;;;;2080066;28;20080;-75
2022/10/21 00:38:06;;;;;;;17.98;12.90;;;10.90;99.90;;;;;;2079818;28;20029;-74
2022/10/21 00:39:06;;;;;;;18.13;13.15;;;10.90;99.90;;;;;;2080608;28;20013;-75
2022/10/21 00:40:08;;;;;;;18.83;13.73;;;10.90;99.90;;;;;;2080107;28;20041;-75
2022/10/21 00:41:09;;;;;;;16.73;12.65;;;10.90;99.90;;;;;;2084324;28;20033;-75
2022/10/21 00:42:18;;;;;;;17.17;13.43;;;10.90;99.90;;;;;;2082541;28;20028;-75
2022/10/21 00:43:19;;;;;;;17.85;12.93;;;10.90;99.90;;;;;;2085923;28;20048;-75
2022/10/21 00:44:20;;;;;;;16.42;12.70;;;10.90;99.90;;;;;;2087786;28;20029;-75
2022/10/21 00:45:28;;;;;;;17.08;13.25;;;10.90;99.90;;;;;;2088383;28;20032;-75
2022/10/21 00:46:40;;;;;;;17.48;13.50;;;10.90;99.90;;;;;;2088393;28;20067;-75
2022/10/21 00:47:45;;;;;;;17.80;13.40;;;10.90;99.90;;;;;;2072500;28;20022;-75
2022/10/21 00:48:54;;;;;;;16.17;12.90;;;10.90;99.90;;;;;;2079683;28;20034;-75
2022/10/21 00:50:02;;;;;;;19.55;13.70;;;10.90;99.90;;;;;;2080290;28;20112;-75
2022/10/21 00:51:08;;;;;;;17.75;12.90;;;10.90;99.90;;;;;;2079961;28;20483;-75
2022/10/21 00:52:16;;;;;;;20.92;13.48;;;10.90;99.90;;;;;;2079357;28;20026;-75
2022/10/21 00:53:17;;;;;;;18.55;13.25;;;10.90;99.90;;;;;;2079620;28;20030;-75
2022/10/21 00:54:20;;;;;;;18.58;13.32;;;10.90;99.90;;;;;;2079317;28;20111;-75
2022/10/21 00:55:22;;;;;;;19.73;12.80;;;10.90;99.90;;;;;;2074727;28;20080;-75
2022/10/21 00:56:28;;;;;;;17.27;13.32;;;10.90;99.90;;;;;;2070384;28;20014;-75
2022/10/21 00:57:32;;;;;;;19.20;13.55;;;10.90;99.90;;;;;;2071947;28;20546;-75
2022/10/21 00:58:33;;;;;;;22.08;13.85;;;10.90;99.90;;;;;;2071754;28;20080;-75
2022/10/21 00:59:38;;;;;;;18.73;13.57;;;10.90;99.90;;;;;;2079375;28;20125;-75
2022/10/21 01:00:39;;;;;;;17.98;12.98;;;10.90;99.90;;;;;;2071409;28;20029;-74
2022/10/21 01:01:40;;;;;;;17.13;13.38;;;10.90;99.90;;;;;;2079366;28;20052;-75
2022/10/21 01:02:40;;;;;;;20.60;13.50;;;10.90;99.90;;;;;;2096235;28;20024;-75
2022/10/21 01:03:41;;;;;;;18.63;12.52;;;10.90;99.90;;;;;;2080569;28;20108;-74
2022/10/21 01:04:43;;;;;;;17.50;13.10;;;10.90;99.90;;;;;;2079340;28;20025;-74
2022/10/21 01:05:44;;;;;;;19.48;13.35;;;10.90;99.90;;;;;;2079213;28;20047;-74
2022/10/21 01:06:46;;;;;;;19.00;13.60;;;10.90;99.90;;;;;;2079580;28;20033;-74
2022/10/21 01:07:48;;;;;;;17.80;13.63;;;10.90;99.90;;;;;;2079473;28;20029;-75
2022/10/21 01:08:50;;;;;;;17.90;13.10;;;10.90;99.90;;;;;;2080260;28;20044;-74
2022/10/21 01:09:50;;;;;;;18.63;12.90;;;10.90;99.90;;;;;;2079545;28;20026;-74
2022/10/21 01:10:52;;;;;;;18.95;13.45;;;10.90;99.90;;;;;;2079446;28;20442;-74
2022/10/21 01:11:52;;;;;;;19.35;13.38;;;10.90;99.90;;;;;;2080168;28;20120;-75
2022/10/21 01:13:11;;;;;;;18.60;13.88;;;10.90;99.90;;;;;;2071170;28;20036;-75
2022/10/21 01:14:32;;;;;;;18.48;13.02;;;10.90;99.90;;;;;;2083927;28;20123;-74
2022/10/21 01:15:51;;;;;;;18.52;13.27;;;10.80;99.90;;;;;;2090838;28;20028;-74
2022/10/21 01:17:37;;;;;;;17.52;13.82;;;10.80;99.90;;;;;;2079814;28;20507;-75
2022/10/21 01:18:56;;;;;;;18.60;13.75;;;10.80;99.90;;;;;;2080059;28;20497;-74
2022/10/21 01:20:23;;;;;;;18.48;13.43;;;10.80;99.90;;;;;;2071303;28;20022;-74
2022/10/21 01:22:14;;;;;;;17.25;12.93;;;10.80;99.90;;;;;;2075084;28;20044;-75
2022/10/21 01:23:26;;;;;;;18.42;13.27;;;10.80;99.90;;;;;;2080205;28;20770;-75
2022/10/21 01:24:52;;;;;;;16.00;12.38;;;10.80;99.90;;;;;;2079056;28;20427;-75
2022/10/21 01:26:19;;;;;;;16.73;12.52;;;10.70;99.90;;;;;;2079839;28;20033;-75
2022/10/21 01:27:49;;;;;;;17.73;13.07;;;10.70;99.90;;;;;;2062531;28;20034;-75
2022/10/21 01:29:39;;;;;;;18.38;13.10;;;10.80;99.90;;;;;;2087239;28;20041;-74
2022/10/21 01:30:54;;;;;;;20.90;13.37;;;10.80;99.90;;;;;;2081577;28;20021;-75
2022/10/21 01:32:26;;;;;;;16.77;12.88;;;10.80;99.90;;;;;;2080189;28;20267;-74
2022/10/21 01:33:29;;;;;;;18.25;13.38;;;10.80;99.90;;;;;;2086155;28;20020;-75
2022/10/21 01:34:36;;;;;;;18.83;13.00;;;10.70;99.90;;;;;;2078767;28;20479;-74
2022/10/21 01:35:39;;;;;;;19.10;13.60;;;10.70;99.90;;;;;;2055971;28;20125;-75
2022/10/21 01:37:09;;;;;;;19.70;13.23;;;10.70;99.90;;;;;;2069202;28;20627;-75
2022/10/21 01:38:27;;;;;;;17.95;13.48;;;10.70;99.90;;;;;;2072272;28;20068;-75
2022/10/21 01:39:36;;;;;;;18.23;13.20;;;10.70;99.90;;;;;;2087639;28;20016;-74
2022/10/21 01:40:51;;;;;;;17.98;12.52;;;10.70;99.90;;;;;;2087598;28;20033;-75
2022/10/21 01:42:16;;;;;;;16.35;12.57;;;10.80;99.90;;;;;;2097871;28;20522;-75
2022/10/21 01:43:28;;;;;;;19.38;13.20;;;10.70;99.90;;;;;;2086834;28;20029;-75
2022/10/21 01:44:35;;;;;;;19.60;13.57;;;10.70;99.90;;;;;;2079662;28;20029;-75
2022/10/21 01:45:48;;;;;;;16.15;12.65;;;10.70;99.90;;;;;;2074379;28;20496;-75
2022/10/21 01:46:53;;;;;;;17.80;13.18;;;10.70;99.90;;;;;;2074866;28;20033;-75
2022/10/21 01:47:57;;;;;;;20.00;13.70;;;10.60;99.90;;;;;;2080596;28;20551;-75
2022/10/21 01:49:06;;;;;;;17.58;13.30;;;10.70;99.90;;;;;;2072001;28;20037;-75
2022/10/21 01:50:20;;;;;;;22.42;13.57;;;10.70;99.90;;;;;;2072707;28;20702;-75
2022/10/21 01:51:23;;;;;;;17.33;12.90;;;10.60;99.90;;;;;;2081066;28;20037;-75
2022/10/21 01:52:24;;;;;;;16.63;12.30;;;10.70;99.90;;;;;;2079127;28;20061;-75
2022/10/21 01:53:28;;;;;;;20.83;13.05;;;10.70;99.90;;;;;;2070905;28;20038;-74
2022/10/21 01:54:34;;;;;;;18.58;13.13;;;10.70;99.90;;;;;;2063039;28;20109;-75
2022/10/21 01:55:36;;;;;;;17.60;12.57;;;10.70;99.90;;;;;;2071057;28;20036;-75
2022/10/21 01:56:39;;;;;;;19.05;12.98;;;10.70;99.90;;;;;;2071906;28;20403;-74
2022/10/21 01:57:48;;;;;;;17.20;12.48;;;10.70;99.90;;;;;;2071669;28;20066;-75
2022/10/21 01:58:50;;;;;;;18.70;13.02;;;10.70;99.90;;;;;;2071677;28;20496;-74
2022/10/21 01:59:52;;;;;;;20.23;13.40;;;10.70;99.90;;;;;;2071057;28;20075;-74
2022/10/21 02:00:56;;;;;;;19.98;13.27;;;10.70;99.90;;;;;;2071062;28;20427;-74
2022/10/21 02:02:00;;;;;;;20.80;13.63;;;10.70;99.90;;;;;;2071017;28;20492;-74
2022/10/21 02:03:06;;;;;;;17.60;13.18;;;10.80;99.90;;;;;;2071128;28;20038;-74
2022/10/21 02:04:08;;;;;;;20.13;12.80;;;10.80;99.90;;;;;;2071074;28;20064;-74
2022/10/21 02:05:15;;;;;;;17.05;13.13;;;10.80;99.90;;;;;;2071274;28;20041;-74
2022/10/21 02:06:16;;;;;;;18.17;12.60;;;10.80;99.90;;;;;;2071935;28;20494;-74
2022/10/21 02:07:17;;;;;;;16.55;12.93;;;10.70;99.90;;;;;;2071602;28;20034;-74
2022/10/21 02:08:18;;;;;;;18.52;12.63;;;10.80;99.90;;;;;;2071712;28;20022;-74
2022/10/21 02:09:19;;;;;;;16.27;12.80;;;10.80;99.90;;;;;;2078975;28;20685;-74
2022/10/21 02:10:22;;;;;;;21.60;13.63;;;10.70;99.90;;;;;;2070618;28;20029;-74
2022/10/21 02:11:23;;;;;;;16.60;12.52;;;10.80;99.90;;;;;;2071029;28;20050;-74
2022/10/21 02:12:25;;;;;;;18.58;12.80;;;10.80;99.90;;;;;;2079130;28;20116;-74
2022/10/21 02:13:33;;;;;;;18.10;12.60;;;10.80;99.90;;;;;;2071795;28;20038;-74
2022/10/21 02:14:38;;;;;;;15.20;12.30;;;10.80;99.90;;;;;;2070689;28;20052;-74
2022/10/21 02:15:41;;;;;;;15.60;11.43;;;10.80;99.90;;;;;;2071108;28;20018;-74
2022/10/21 02:16:47;;;;;;;15.93;12.27;;;10.80;99.90;;;;;;2071626;28;20066;-74
2022/10/21 02:17:54;;;;;;;19.38;13.38;;;10.70;99.90;;;;;;2071865;28;20081;-74
2022/10/21 02:18:56;;;;;;;16.98;12.60;;;10.80;99.90;;;;;;2071158;28;20467;-74
2022/10/21 02:20:01;;;;;;;18.80;12.93;;;10.80;99.90;;;;;;2071316;28;20038;-74
2022/10/21 02:21:06;;;;;;;17.73;12.43;;;10.80;99.90;;;;;;2073572;28;20041;-74
2022/10/21 02:22:08;;;;;;;17.88;12.90;;;10.70;99.90;;;;;;2073521;28;20046;-74
2022/10/21 02:23:14;;;;;;;17.95;12.18;;;10.70;99.90;;;;;;2073087;28;20025;-74
2022/10/21 02:24:45;;;;;;;19.90;13.65;;;10.80;99.90;;;;;;2072892;28;20049;-74
2022/10/21 02:25:49;;;;;;;18.38;12.65;;;10.70;99.90;;;;;;2077467;28;20048;-74
2022/10/21 02:26:50;;;;;;;18.92;13.30;;;10.70;99.90;;;;;;2078960;28;20400;-74
2022/10/21 02:27:52;;;;;;;17.25;12.50;;;10.60;99.90;;;;;;2079127;28;20072;-74
2022/10/21 02:28:54;;;;;;;21.98;14.02;;;10.70;99.90;;;;;;2079316;28;20066;-75
2022/10/21 02:29:57;;;;;;;19.23;13.00;;;10.70;99.90;;;;;;2095672;28;20054;-74
2022/10/21 02:31:25;;;;;;;19.63;12.90;;;10.70;99.90;;;;;;2087525;28;20021;-74
2022/10/21 02:32:49;;;;;;;16.35;12.55;;;10.60;99.90;;;;;;2074789;28;20092;-74
2022/10/21 02:34:18;;;;;;;18.17;13.50;;;10.60;99.90;;;;;;2075906;28;20030;-74
2022/10/21 02:35:41;;;;;;;19.27;13.10;;;10.60;99.90;;;;;;2081741;28;20026;-74
2022/10/21 02:36:55;;;;;;;17.70;12.82;;;10.60;99.90;;;;;;2079818;28;20025;-74
2022/10/21 02:38:04;;;;;;;18.92;12.90;;;10.60;99.90;;;;;;2079824;28;20510;-74
2022/10/21 02:39:21;;;;;;;20.00;13.25;;;10.60;99.90;;;;;;2083372;28;20372;-74
2022/10/21 02:40:29;;;;;;;17.70;12.90;;;10.60;99.90;;;;;;2083450;28;20044;-74
2022/10/21 02:41:32;;;;;;;16.70;12.43;;;10.60;99.90;;;;;;2084327;28;20249;-74
2022/10/21 02:42:38;;;;;;;17.55;12.75;;;10.60;99.90;;;;;;2074006;28;20080;-74
2022/10/21 02:43:53;;;;;;;16.52;12.60;;;10.60;99.90;;;;;;2073312;28;20065;-74
2022/10/21 02:44:53;;;;;;;16.95;12.23;;;10.60;99.90;;;;;;2079063;28;20033;-73
2022/10/21 02:45:59;;;;;;;16.92;12.43;;;10.60;99.90;;;;;;2079914;28;20033;-74
2022/10/21 02:47:01;;;;;;;19.63;14.15;;;10.60;99.90;;;;;;2070782;28;20022;-75
2022/10/21 02:48:02;;;;;;;18.15;13.07;;;10.60;99.90;;;;;;2072597;28;20029;-74
2022/10/21 02:49:03;;;;;;;18.73;13.70;;;10.70;99.90;;;;;;2087224;28;20526;-74
2022/10/21 02:50:04;;;;;;;20.13;13.15;;;10.70;99.90;;;;;;2078871;28;20022;-74
2022/10/21 02:51:06;;;;;;;19.83;14.45;;;10.70;99.90;;;;;;2070954;28;20095;-74
2022/10/21 02:52:07;;;;;;;20.15;13.88;;;10.70;99.90;;;;;;2070966;28;20385;-74
2022/10/21 02:53:09;;;;;;;18.73;13.10;;;10.60;99.90;;;;;;2078833;28;20072;-74
2022/10/21 02:54:11;;;;;;;17.80;13.50;;;10.60;99.90;;;;;;2078560;28;20064;-74
2022/10/21 02:55:11;;;;;;;18.58;14.15;;;10.60;99.90;;;;;;2078860;28;20032;-75
2022/10/21 02:56:12;;;;;;;20.23;13.55;;;10.60;99.90;;;;;;2079852;28;20064;-74
2022/10/21 02:57:13;;;;;;;20.50;14.57;;;10.70;99.90;;;;;;2079372;28;20116;-74
2022/10/21 02:58:13;;;;;;;20.50;14.35;;;10.70;99.90;;;;;;2070890;28;20053;-74
2022/10/21 02:59:14;;;;;;;20.13;13.98;;;10.60;99.90;;;;;;2079053;28;20088;-74
2022/10/21 03:00:15;;;;;;;20.35;14.65;;;10.60;99.90;;;;;;2078856;28;20029;-74
2022/10/21 03:01:16;;;;;;;17.92;13.15;;;10.60;99.90;;;;;;2078908;28;20025;-74
2022/10/21 03:02:16;;;;;;;22.33;14.73;;;10.70;99.90;;;;;;2078999;28;20095;-74
2022/10/21 03:03:17;;;;;;;22.05;14.23;;;10.60;99.90;;;;;;2079456;28;20518;-74
2022/10/21 03:04:18;;;;;;;19.58;14.02;;;10.60;99.90;;;;;;2079231;28;20113;-74
2022/10/21 03:05:19;;;;;;;16.98;13.57;;;10.70;99.90;;;;;;2081264;28;20034;-74
2022/10/21 03:06:19;;;;;;;23.55;14.63;;;10.70;99.90;;;;;;2080542;28;20551;-74
2022/10/21 03:07:20;;;;;;;19.42;13.88;;;10.70;99.90;;;;;;2072473;28;20057;-74
2022/10/21 03:08:21;;;;;;;20.30;14.77;;;10.70;99.90;;;;;;2080412;28;20166;-73
2022/10/21 03:09:21;;;;;;;19.30;14.43;;;10.70;99.90;;;;;;2080846;28;20026;-74
2022/10/21 03:10:22;;;;;;;20.58;14.73;;;10.70;99.90;;;;;;2080911;28;20029;-73
2022/10/21 03:11:23;;;;;;;20.15;14.48;;;10.70;99.90;;;;;;2080106;28;20030;-73
2022/10/21 03:12:23;;;;;;;20.73;15.07;;;10.70;99.90;;;;;;2080400;28;20462;-73
2022/10/21 03:13:24;;;;;;;20.58;14.32;;;10.70;99.90;;;;;;2081086;28;20117;-72
2022/10/21 03:14:25;;;;;;;22.83;14.68;;;10.70;99.90;;;;;;2080681;28;20056;-73
2022/10/21 03:15:25;;;;;;;23.52;15.40;;;10.70;99.90;;;;;;2080251;28;20776;-73
2022/10/21 03:16:26;;;;;;;22.90;16.13;;;10.70;99.90;;;;;;2080368;28;20143;-74
2022/10/21 03:17:26;;;;;;;21.50;14.95;;;10.70;99.90;;;;;;2080092;28;20700;-73
2022/10/21 03:18:27;;;;;;;20.33;15.15;;;10.60;99.90;;;;;;2072028;28;20124;-73
2022/10/21 03:19:28;;;;;;;21.08;14.60;;;10.60;99.90;;;;;;2080408;28;20037;-73
2022/10/21 03:20:28;;;;;;;22.08;15.52;;;10.70;99.90;;;;;;2080951;28;20057;-75
2022/10/21 03:21:29;;;;;;;23.92;16.27;;;10.60;99.90;;;;;;2079874;28;20395;-73
2022/10/21 03:22:29;;;;;;;25.75;16.10;;;10.70;99.90;;;;;;2071957;28;20018;-71
2022/10/21 03:23:30;;;;;;;23.35;16.25;;;10.70;99.90;;;;;;2079948;28;20873;-73
2022/10/21 03:24:31;;;;;;;20.95;15.18;;;10.70;99.90;;;;;;2079394;28;20248;-73
2022/10/21 03:25:31;;;;;;;23.30;15.40;;;10.60;99.90;;;;;;2071735;28;20034;-72
2022/10/21 03:26:32;;;;;;;21.67;16.30;;;10.70;99.90;;;;;;2080116;28;20049;-73
2022/10/21 03:27:32;;;;;;;23.05;16.52;;;10.60;99.90;;;;;;2079816;28;20087;-73
2022/10/21 03:28:33;;;;;;;21.27;16.70;;;10.60;99.90;;;;;;2080054;28;20021;-73
2022/10/21 03:29:34;;;;;;;23.42;15.80;;;10.60;99.90;;;;;;2071678;28;20640;-72
2022/10/21 03:30:34;;;;;;;21.95;16.17;;;10.60;99.90;;;;;;2079791;28;20022;-72
2022/10/21 03:31:35;;;;;;;23.42;15.82;;;10.60;99.90;;;;;;2071930;28;20029;-73
2022/10/21 03:32:36;;;;;;;23.27;16.23;;;10.60;99.90;;;;;;2080215;28;20396;-72
2022/10/21 03:33:36;;;;;;;22.27;15.55;;;10.60;99.90;;;;;;2080455;28;20055;-73
2022/10/21 03:34:37;;;;;;;20.30;14.93;;;10.60;99.90;;;;;;2071419;28;20069;-73
2022/10/21 03:35:37;;;;;;;23.58;16.00;;;10.60;99.90;;;;;;2080190;28;20037;-72
2022/10/21 03:36:38;;;;;;;20.55;15.13;;;10.60;99.90;;;;;;2081232;28;20029;-73
2022/10/21 03:37:39;;;;;;;21.15;15.93;;;10.70;99.90;;;;;;2080143;28;20380;-74
2022/10/21 03:38:39;;;;;;;19.67;14.85;;;10.60;99.90;;;;;;2080157;28;20029;-74
2022/10/21 03:39:40;;;;;;;22.00;15.32;;;10.70;99.90;;;;;;2080666;28;20025;-73
2022/10/21 03:40:40;;;;;;;21.80;14.77;;;10.60;99.90;;;;;;2080762;28;20033;-75
2022/10/21 03:41:41;;;;;;;25.42;16.88;;;10.60;99.90;;;;;;2080995;28;20037;-74
2022/10/21 03:42:42;;;;;;;21.17;15.35;;;10.60;99.90;;;;;;2080965;28;20025;-76
2022/10/21 03:43:42;;;;;;;24.30;16.25;;;10.60;99.90;;;;;;2079070;28;20029;-73
2022/10/21 03:44:43;;;;;;;23.23;15.90;;;10.60;99.90;;;;;;2072698;28;20037;-72
2022/10/21 03:45:44;;;;;;;25.77;16.35;;;10.50;99.90;;;;;;2080102;28;20056;-73
2022/10/21 03:46:45;;;;;;;23.98;17.00;;;10.50;99.90;;;;;;2079469;28;20022;-73
2022/10/21 03:47:46;;;;;;;21.35;15.95;;;10.50;99.90;;;;;;2086060;28;20073;-72
2022/10/21 03:48:47;;;;;;;24.88;16.77;;;10.40;99.90;;;;;;2080201;28;20041;-73
2022/10/21 03:49:47;;;;;;;22.48;16.73;;;10.40;99.90;;;;;;2080135;28;20029;-72
2022/10/21 03:50:48;;;;;;;24.98;17.58;;;10.40;99.90;;;;;;2080512;28;20117;-72
2022/10/21 03:51:49;;;;;;;21.23;15.93;;;10.40;99.90;;;;;;2080615;28;20029;-73
2022/10/21 03:52:50;;;;;;;20.70;16.05;;;10.30;99.90;;;;;;2080375;28;20025;-73
2022/10/21 03:53:50;;;;;;;20.88;16.00;;;10.30;99.90;;;;;;2088229;28;20146;-72
2022/10/21 03:54:51;;;;;;;21.45;16.02;;;10.30;99.90;;;;;;2095872;28;20040;-74
2022/10/21 03:55:52;;;;;;;22.27;16.63;;;10.20;99.90;;;;;;2080809;28;20044;-73
2022/10/21 03:56:52;;;;;;;25.52;16.83;;;10.20;99.90;;;;;;2080638;28;20093;-73
2022/10/21 03:57:53;;;;;;;23.90;16.85;;;10.20;99.90;;;;;;2081271;28;20499;-72
2022/10/21 03:58:54;;;;;;;22.80;16.60;;;10.20;99.90;;;;;;2079876;28;20522;-72
2022/10/21 03:59:54;;;;;;;21.67;15.80;;;10.20;99.90;;;;;;2080132;28;20095;-77
2022/10/21 04:00:55;;;;;;;23.65;17.13;;;10.20;99.90;;;;;;2079751;28;20037;-71
2022/10/21 04:01:56;;;;;;;23.50;16.77;;;10.20;99.90;;;;;;2079860;28;20878;-71
2022/10/21 04:02:56;;;;;;;22.98;16.13;;;10.20;99.90;;;;;;2079738;28;20132;-71
2022/10/21 04:03:57;;;;;;;22.83;16.27;;;10.20;99.90;;;;;;2079888;28;20601;-69
2022/10/21 04:04:57;;;;;;;21.77;16.25;;;10.20;99.90;;;;;;2079709;28;20021;-74
2022/10/21 04:05:58;;;;;;;23.10;16.73;;;10.20;99.90;;;;;;2080119;28;20038;-73
2022/10/21 04:06:59;;;;;;;24.80;17.02;;;10.20;99.90;;;;;;2081163;28;20047;-72
2022/10/21 04:08:00;;;;;;;24.10;17.20;;;10.20;99.90;;;;;;2080715;28;20021;-73
2022/10/21 04:09:00;;;;;;;22.83;16.75;;;10.20;99.90;;;;;;2080483;28;20025;-72
2022/10/21 04:10:01;;;;;;;24.98;17.50;;;10.20;99.90;;;;;;2080602;28;20040;-73
2022/10/21 04:11:02;;;;;;;23.73;17.27;;;10.20;99.90;;;;;;2080286;28;20040;-73
2022/10/21 04:12:02;;;;;;;26.40;17.08;;;10.20;99.90;;;;;;2079628;28;20052;-72
2022/10/21 04:13:03;;;;;;;26.45;17.48;;;10.20;99.90;;;;;;2079727;28;20029;-74
2022/10/21 04:14:04;;;;;;;26.52;17.67;;;10.20;99.90;;;;;;2079485;28;20523;-74
2022/10/21 04:15:05;;;;;;;24.45;17.10;;;10.20;99.90;;;;;;2079447;28;20025;-74
2022/10/21 04:16:10;;;;;;;23.73;16.85;;;10.20;99.90;;;;;;2079767;28;20021;-72
2022/10/21 04:17:10;;;;;;;24.15;16.98;;;10.10;99.90;;;;;;2079829;28;20076;-73
2022/10/21 04:18:11;;;;;;;26.08;17.23;;;10.10;99.90;;;;;;2078967;28;20107;-73
2022/10/21 04:19:16;;;;;;;24.77;17.40;;;10.10;99.90;;;;;;2080185;28;20021;-75
2022/10/21 04:20:18;;;;;;;24.05;17.38;;;10.00;99.90;;;;;;2080033;28;20022;-74
2022/10/21 04:21:18;;;;;;;25.58;18.08;;;10.00;99.90;;;;;;2079425;28;20464;-73
2022/10/21 04:22:19;;;;;;;23.92;17.17;;;10.00;99.90;;;;;;2079616;28;20026;-73
2022/10/21 04:23:20;;;;;;;25.08;17.15;;;10.00;99.90;;;;;;2079585;28;20769;-73
2022/10/21 04:24:21;;;;;;;24.38;17.35;;;10.00;99.90;;;;;;2079157;28;20052;-73
2022/10/21 04:25:21;;;;;;;22.48;16.33;;;10.00;99.90;;;;;;2079479;28;20403;-73
2022/10/21 04:26:22;;;;;;;24.75;16.98;;;9.90;99.90;;;;;;2087075;28;20546;-73
2022/10/21 04:27:22;;;;;;;25.42;17.48;;;9.90;99.90;;;;;;2081064;28;20485;-73
2022/10/21 04:28:23;;;;;;;23.40;16.92;;;9.90;99.90;;;;;;2086268;28;20032;-74
2022/10/21 04:29:24;;;;;;;24.65;17.48;;;9.90;99.90;;;;;;2087794;28;20021;-73
2022/10/21 04:30:24;;;;;;;25.45;17.73;;;9.90;99.90;;;;;;2087697;28;20040;-73
2022/10/21 04:31:25;;;;;;;24.90;17.02;;;9.90;99.90;;;;;;2087618;28;20032;-73
2022/10/21 04:32:26;;;;;;;22.55;17.00;;;9.90;99.90;;;;;;2087588;28;20098;-74
2022/10/21 04:33:26;;;;;;;24.42;17.02;;;9.90;99.90;;;;;;2080261;28;20025;-73
2022/10/21 04:34:27;;;;;;;24.63;17.15;;;9.90;99.90;;;;;;2078901;28;20030;-73
2022/10/21 04:35:28;;;;;;;26.02;17.48;;;9.90;99.90;;;;;;2079266;28;20470;-73
2022/10/21 04:36:28;;;;;;;23.83;16.63;;;9.90;99.90;;;;;;2079781;28;20037;-73
2022/10/21 04:37:29;;;;;;;22.50;16.55;;;9.90;99.90;;;;;;2079306;28;20040;-73
2022/10/21 04:38:30;;;;;;;26.00;17.50;;;9.90;99.90;;;;;;2079173;28;20037;-73
2022/10/21 04:39:30;;;;;;;26.63;17.58;;;9.90;99.90;;;;;;2079565;28;20475;-74
2022/10/21 04:40:31;;;;;;;26.25;16.90;;;9.90;99.90;;;;;;2073737;28;20036;-74
2022/10/21 04:41:32;;;;;;;21.80;16.10;;;9.90;99.90;;;;;;2079181;28;20750;-73
2022/10/21 04:42:32;;;;;;;24.45;17.90;;;9.90;99.90;;;;;;2096360;28;20115;-73
2022/10/21 04:43:33;;;;;;;23.50;17.20;;;9.90;99.90;;;;;;2096244;28;20488;-73
2022/10/21 04:44:36;;;;;;;23.25;17.30;;;10.00;99.90;;;;;;2080100;28;20021;-74
2022/10/21 04:45:39;;;;;;;23.88;17.67;;;10.00;99.90;;;;;;2071502;28;20036;-73
2022/10/21 04:46:40;;;;;;;24.67;17.83;;;10.00;99.90;;;;;;2080572;28;20095;-73
2022/10/21 04:47:41;;;;;;;25.10;17.58;;;10.00;99.90;;;;;;2096319;28;20531;-76
2022/10/21 04:48:42;;;;;;;23.77;17.25;;;10.00;99.90;;;;;;2088495;28;20043;-74
2022/10/21 04:49:43;;;;;;;24.30;16.67;;;10.00;99.90;;;;;;2071887;28;20026;-75
2022/10/21 04:50:43;;;;;;;24.95;18.00;;;10.00;99.90;;;;;;2063890;28;20701;-75
2022/10/21 04:51:44;;;;;;;24.60;17.40;;;10.00;99.90;;;;;;2079795;28;20026;-75
2022/10/21 04:52:44;;;;;;;22.52;16.33;;;10.00;99.90;;;;;;2079893;28;20033;-74
2022/10/21 04:53:45;;;;;;;25.05;17.25;;;10.00;99.90;;;;;;2071595;28;20076;-74
2022/10/21 04:54:46;;;;;;;25.10;16.90;;;10.00;99.90;;;;;;2078867;28;20060;-74
2022/10/21 04:55:51;;;;;;;23.98;16.60;;;10.00;99.90;;;;;;2079679;28;20048;-73
2022/10/21 04:56:51;;;;;;;28.88;17.70;;;10.00;99.90;;;;;;2080226;28;20426;-72
2022/10/21 04:57:52;;;;;;;23.77;16.70;;;10.00;99.90;;;;;;2080167;28;20104;-75
2022/10/21 04:58:53;;;;;;;25.15;17.17;;;10.00;99.90;;;;;;2071397;28;20037;-71
2022/10/21 04:59:53;;;;;;;27.45;17.52;;;10.00;99.90;;;;;;2070960;28;20089;-73
2022/10/21 05:00:54;;;;;;;25.70;17.77;;;10.00;99.90;;;;;;2079160;28;20033;-73
2022/10/21 05:01:54;;;;;;;23.92;17.08;;;10.00;99.90;;;;;;2079326;28;20124;-73
2022/10/21 05:02:55;;;;;;;26.23;17.17;;;9.90;99.90;;;;;;2086995;28;20033;-73
2022/10/21 05:03:56;;;;;;;24.10;17.67;;;9.90;99.90;;;;;;2079267;28;20063;-73
2022/10/21 05:04:56;;;;;;;24.42;17.63;;;9.90;99.90;;;;;;2079240;28;20134;-72
2022/10/21 05:05:57;;;;;;;25.70;18.13;;;9.90;99.90;;;;;;2080146;28;20029;-73
2022/10/21 05:06:58;;;;;;;23.88;17.23;;;9.90;99.90;;;;;;2079422;28;20033;-72
2022/10/21 05:07:58;;;;;;;25.17;17.40;;;9.90;99.90;;;;;;2079539;28;20831;-73
2022/10/21 05:08:59;;;;;;;28.30;18.67;;;9.90;99.90;;;;;;2079376;28;20646;-72
2022/10/21 05:10:00;;;;;;;24.50;18.30;;;10.00;99.90;;;;;;2071861;28;20038;-73
2022/10/21 05:11:02;;;;;;;26.92;18.27;;;10.00;99.90;;;;;;2073840;28;20109;-73
2022/10/21 05:12:03;;;;;;;28.02;18.55;;;10.00;99.90;;;;;;2074410;28;20037;-74
2022/10/21 05:13:04;;;;;;;26.67;18.58;;;10.00;99.90;;;;;;2089934;28;20422;-73
2022/10/21 05:14:05;;;;;;;27.42;19.00;;;10.00;99.90;;;;;;2096482;28;20568;-74
2022/10/21 05:15:06;;;;;;;25.50;18.48;;;10.00;99.90;;;;;;2079996;28;20140;-73
2022/10/21 05:16:07;;;;;;;22.88;17.67;;;10.00;99.90;;;;;;2079305;28;20562;-74
2022/10/21 05:17:07;;;;;;;26.25;17.95;;;10.00;99.90;;;;;;2079432;28;20029;-74
2022/10/21 05:18:08;;;;;;;25.40;18.20;;;10.00;99.90;;;;;;2071005;28;20424;-74
2022/10/21 05:19:10;;;;;;;25.42;18.23;;;10.00;99.90;;;;;;2063283;28;20098;-74
2022/10/21 05:20:11;;;;;;;26.30;18.77;;;10.00;99.90;;;;;;2076445;28;20491;-74
2022/10/21 05:21:12;;;;;;;27.58;18.30;;;10.00;99.90;;;;;;2079496;28;20029;-72
2022/10/21 05:22:12;;;;;;;27.38;18.88;;;10.00;99.90;;;;;;2084565;28;20086;-72
2022/10/21 05:23:13;;;;;;;26.40;18.30;;;10.00;99.90;;;;;;2082021;28;20028;-73
2022/10/21 05:24:14;;;;;;;23.55;17.20;;;10.00;99.90;;;;;;2084399;28;20475;-72